Time,TemperatureF,DewpointF,PressureIn,WindDirection,WindDirectionDegrees,WindSpeedMPH,WindSpeedGustMPH,Humidity,HourlyPrecipIn,Conditions,Clouds,dailyrainin,SoftwareType,DateUTC
2013-05-26 00:01:00,57.0,29.0,-100.00,SSE,160,3.0,3.0,34,0.00,,,-99.99,,2013-05-26 06:01:00,
2013-05-26 00:11:00,56.0,28.0,-100.00,SE,127,5.0,6.0,34,0.00,,,-99.99,,2013-05-26 06:11:00,
2013-05-26 00:21:00,55.0,28.0,-100.00,SSW,193,5.0,8.0,35,0.00,,,-99.99,,2013-05-26 06:21:00,
2013-05-26 00:32:00,55.0,28.0,-100.00,SSW,193,5.0,8.0,35,0.00,,,-99.99,,2013-05-26 06:32:00,
2013-05-26 00:42:00,56.0,28.0,-100.00,SSE,151,4.0,6.0,34,0.00,,,-99.99,,2013-05-26 06:42:00,
2013-05-26 00:52:00,56.0,28.0,-100.00,SSE,151,4.0,6.0,34,0.00,,,-99.99,,2013-05-26 06:52:00,
2013-05-26 01:11:00,56.0,28.0,-100.00,ESE,123,5.0,6.0,34,0.00,,,-99.99,,2013-05-26 07:11:00,
2013-05-26 01:21:00,56.0,28.0,-100.00,South,188,4.0,6.0,35,0.00,,,-99.99,,2013-05-26 07:21:00,
2013-05-26 01:42:00,56.0,28.0,-100.00,SE,133,4.0,5.0,33,0.00,,,-99.99,,2013-05-26 07:42:00,
2013-05-26 01:52:00,55.0,28.0,-100.00,SE,131,4.0,5.0,35,0.00,,,-99.99,,2013-05-26 07:52:00,
2013-05-26 02:01:00,55.0,28.0,-100.00,SE,131,4.0,5.0,35,0.00,,,-99.99,,2013-05-26 08:01:00,
2013-05-26 02:21:00,54.0,28.0,-100.00,SE,130,6.0,7.0,37,0.00,,,-99.99,,2013-05-26 08:21:00,
2013-05-26 02:31:00,54.0,28.0,-100.00,SE,130,6.0,7.0,37,0.00,,,-99.99,,2013-05-26 08:31:00,
2013-05-26 02:42:00,54.0,28.0,-100.00,South,182,4.0,5.0,36,0.00,,,-99.99,,2013-05-26 08:42:00,
2013-05-26 02:53:00,54.0,28.0,-100.00,South,182,4.0,5.0,36,0.00,,,-99.99,,2013-05-26 08:53:00,
2013-05-26 03:11:00,54.0,28.0,-100.00,South,182,2.0,3.0,37,0.00,,,-99.99,,2013-05-26 09:11:00,
2013-05-26 03:21:00,55.0,27.0,-100.00,SE,136,4.0,5.0,35,0.00,,,-99.99,,2013-05-26 09:21:00,
2013-05-26 03:33:00,55.0,27.0,-100.00,SE,136,4.0,5.0,35,0.00,,,-99.99,,2013-05-26 09:33:00,
2013-05-26 03:43:00,54.0,28.0,-100.00,South,186,2.0,3.0,35,0.00,,,-99.99,,2013-05-26 09:43:00,
2013-05-26 03:53:00,55.0,28.0,-100.00,SSE,147,3.0,4.0,35,0.00,,,-99.99,,2013-05-26 09:53:00,
2013-05-26 04:02:00,55.0,28.0,-100.00,SSE,147,3.0,4.0,35,0.00,,,-99.99,,2013-05-26 10:02:00,
2013-05-26 04:22:00,52.0,31.0,-100.00,SSW,203,2.0,4.0,44,0.00,,,-99.99,,2013-05-26 10:22:00,
2013-05-26 04:32:00,52.0,31.0,-100.00,SSW,203,2.0,4.0,44,0.00,,,-99.99,,2013-05-26 10:32:00,
2013-05-26 04:42:00,54.0,29.0,-100.00,NE,34,0.0,2.0,38,0.00,,,-99.99,,2013-05-26 10:42:00,
2013-05-26 04:52:00,53.0,29.0,-100.00,SE,124,3.0,4.0,40,0.00,,,-99.99,,2013-05-26 10:52:00,
2013-05-26 05:02:00,53.0,29.0,-100.00,SE,124,3.0,4.0,40,0.00,,,-99.99,,2013-05-26 11:02:00,
2013-05-26 05:22:00,53.0,29.0,-100.00,SSE,147,4.0,5.0,40,0.00,,,-99.99,,2013-05-26 11:22:00,
2013-05-26 05:32:00,53.0,29.0,-100.00,SSE,147,4.0,5.0,40,0.00,,,-99.99,,2013-05-26 11:32:00,
2013-05-26 05:52:00,53.0,30.0,-100.00,SSE,147,0.0,0.0,41,0.00,,,-99.99,,2013-05-26 11:52:00,
2013-05-26 06:01:00,53.0,30.0,-100.00,SSE,147,0.0,0.0,41,0.00,,,-99.99,,2013-05-26 12:01:00,
2013-05-26 06:11:00,50.0,33.0,-100.00,NNW,335,6.0,8.0,52,0.00,,,-99.99,,2013-05-26 12:11:00,
2013-05-26 06:21:00,48.0,35.0,-100.00,NE,35,5.0,7.0,60,0.00,,,-99.99,,2013-05-26 12:21:00,
2013-05-26 06:31:00,48.0,35.0,-100.00,NE,35,5.0,7.0,60,0.00,,,-99.99,,2013-05-26 12:31:00,
2013-05-26 06:41:00,48.0,34.0,-100.00,NE,47,4.0,5.0,57,0.00,,,-99.99,,2013-05-26 12:41:00,
2013-05-26 06:52:00,48.0,34.0,-100.00,NE,47,4.0,5.0,57,0.00,,,-99.99,,2013-05-26 12:52:00,
2013-05-26 07:02:00,48.0,34.0,-100.00,NE,47,4.0,5.0,57,0.00,,,-99.99,,2013-05-26 13:02:00,
2013-05-26 07:11:00,49.0,36.0,-100.00,West,261,2.0,4.0,60,0.00,,,-99.99,,2013-05-26 13:11:00,
2013-05-26 07:21:00,48.0,35.0,-100.00,South,179,2.0,4.0,61,0.00,,,-99.99,,2013-05-26 13:21:00,
2013-05-26 07:32:00,48.0,35.0,-100.00,South,179,2.0,4.0,61,0.00,,,-99.99,,2013-05-26 13:32:00,
2013-05-26 07:42:00,50.0,34.0,-100.00,East,89,2.0,3.0,53,0.00,,,-99.99,,2013-05-26 13:42:00,
2013-05-26 07:52:00,52.0,35.0,-100.00,ESE,106,3.0,4.0,51,0.00,,,-99.99,,2013-05-26 13:52:00,
2013-05-26 08:01:00,52.0,35.0,-100.00,ESE,106,3.0,4.0,51,0.00,,,-99.99,,2013-05-26 14:01:00,
2013-05-26 08:21:00,53.0,36.0,-100.00,WNW,288,1.0,3.0,52,0.00,,,-99.99,,2013-05-26 14:21:00,
2013-05-26 08:32:00,53.0,36.0,-100.00,WNW,288,1.0,3.0,52,0.00,,,-99.99,,2013-05-26 14:32:00,
2013-05-26 08:41:00,52.0,36.0,-100.00,SSW,213,1.0,2.0,56,0.00,,,-99.99,,2013-05-26 14:41:00,
2013-05-26 08:52:00,53.0,37.0,-100.00,NW,318,2.0,4.0,54,0.00,,,-99.99,,2013-05-26 14:52:00,
2013-05-26 09:01:00,53.0,37.0,-100.00,NW,318,2.0,4.0,54,0.00,,,-99.99,,2013-05-26 15:01:00,
2013-05-26 09:12:00,53.0,36.0,-100.00,South,185,2.0,3.0,52,0.00,,,-99.99,,2013-05-26 15:12:00,
2013-05-26 09:22:00,56.0,36.0,-100.00,SSW,205,3.0,5.0,47,0.00,,,-99.99,,2013-05-26 15:22:00,
2013-05-26 09:33:00,56.0,36.0,-100.00,SSW,205,3.0,5.0,47,0.00,,,-99.99,,2013-05-26 15:33:00,
2013-05-26 09:43:00,59.0,34.0,-100.00,SSW,199,2.0,5.0,39,0.00,,,-99.99,,2013-05-26 15:43:00,
2013-05-26 09:53:00,59.0,34.0,-100.00,SSW,199,2.0,5.0,39,0.00,,,-99.99,,2013-05-26 15:53:00,
2013-05-26 10:03:00,59.0,34.0,-100.00,SSW,199,2.0,5.0,39,0.00,,,-99.99,,2013-05-26 16:03:00,
2013-05-26 10:12:00,62.0,34.0,-100.00,West,263,1.0,2.0,35,0.00,,,-99.99,,2013-05-26 16:12:00,
2013-05-26 10:23:00,62.0,34.0,-100.00,WNW,296,5.0,7.0,35,0.00,,,-99.99,,2013-05-26 16:23:00,
2013-05-26 10:33:00,62.0,34.0,-100.00,WNW,296,5.0,7.0,35,0.00,,,-99.99,,2013-05-26 16:33:00,
2013-05-26 10:42:00,62.0,36.0,-100.00,North,349,2.0,4.0,38,0.00,,,-99.99,,2013-05-26 16:42:00,
2013-05-26 10:53:00,62.0,36.0,-100.00,North,349,2.0,4.0,38,0.00,,,-99.99,,2013-05-26 16:53:00,
2013-05-26 11:02:00,62.0,36.0,-100.00,North,349,2.0,4.0,38,0.00,,,-99.99,,2013-05-26 17:02:00,
2013-05-26 11:11:00,63.0,35.0,-100.00,NNE,21,4.0,6.0,35,0.00,,,-99.99,,2013-05-26 17:11:00,
2013-05-26 11:22:00,64.0,37.0,-100.00,NW,311,4.0,6.0,37,0.00,,,-99.99,,2013-05-26 17:22:00,
2013-05-26 11:32:00,64.0,37.0,-100.00,NW,311,4.0,6.0,37,0.00,,,-99.99,,2013-05-26 17:32:00,
2013-05-26 11:42:00,66.0,41.0,-100.00,NW,306,4.0,6.0,40,0.00,,,-99.99,,2013-05-26 17:42:00,
2013-05-26 11:52:00,65.0,42.0,-100.00,NNW,339,6.0,10.0,43,0.00,,,-99.99,,2013-05-26 17:52:00,
2013-05-26 12:01:00,65.0,42.0,-100.00,NNW,339,6.0,10.0,43,0.00,,,-99.99,,2013-05-26 18:01:00,
2013-05-26 12:12:00,65.0,42.0,-100.00,NNW,339,6.0,10.0,43,0.00,,,-99.99,,2013-05-26 18:12:00,
2013-05-26 12:21:00,65.0,42.0,-100.00,NNW,343,7.0,10.0,43,0.00,,,-99.99,,2013-05-26 18:21:00,
2013-05-26 12:31:00,65.0,42.0,-100.00,NNW,343,7.0,10.0,43,0.00,,,-99.99,,2013-05-26 18:31:00,
2013-05-26 12:42:00,67.0,35.0,-100.00,WNW,292,6.0,9.0,30,0.00,,,-99.99,,2013-05-26 18:42:00,
2013-05-26 12:52:00,69.0,34.0,-100.00,NW,306,5.0,8.0,28,0.00,,,-99.99,,2013-05-26 18:52:00,
2013-05-26 13:01:00,69.0,34.0,-100.00,NW,306,5.0,8.0,28,0.00,,,-99.99,,2013-05-26 19:01:00,
2013-05-26 13:11:00,69.0,32.0,-100.00,NNW,340,6.0,10.0,25,0.00,,,-99.99,,2013-05-26 19:11:00,
2013-05-26 13:21:00,69.0,34.0,-100.00,NW,304,4.0,7.0,27,0.00,,,-99.99,,2013-05-26 19:21:00,
2013-05-26 13:31:00,69.0,34.0,-100.00,NW,304,4.0,7.0,27,0.00,,,-99.99,,2013-05-26 19:31:00,
2013-05-26 13:42:00,71.0,34.0,-100.00,NW,309,8.0,12.0,26,0.00,,,-99.99,,2013-05-26 19:42:00,
2013-05-26 13:52:00,72.0,33.0,-100.00,NNW,347,6.0,9.0,24,0.00,,,-99.99,,2013-05-26 19:52:00,
2013-05-26 14:01:00,72.0,33.0,-100.00,NNW,347,6.0,9.0,24,0.00,,,-99.99,,2013-05-26 20:01:00,
2013-05-26 14:11:00,69.0,33.0,-100.00,North,353,7.0,9.0,26,0.00,,,-99.99,,2013-05-26 20:11:00,
2013-05-26 14:21:00,69.0,34.0,-100.00,NNW,335,6.0,9.0,27,0.00,,,-99.99,,2013-05-26 20:21:00,
2013-05-26 14:32:00,69.0,34.0,-100.00,NNW,335,6.0,9.0,27,0.00,,,-99.99,,2013-05-26 20:32:00,
2013-05-26 14:41:00,69.0,29.0,-100.00,NW,318,4.0,7.0,22,0.00,,,-99.99,,2013-05-26 20:41:00,
2013-05-26 14:52:00,70.0,33.0,-100.00,WNW,282,2.0,3.0,26,0.00,,,-99.99,,2013-05-26 20:52:00,
2013-05-26 15:01:00,70.0,33.0,-100.00,WNW,282,2.0,3.0,26,0.00,,,-99.99,,2013-05-26 21:01:00,
2013-05-26 15:11:00,70.0,33.0,-100.00,NW,318,3.0,6.0,25,0.00,,,-99.99,,2013-05-26 21:11:00,
2013-05-26 15:22:00,71.0,33.0,-100.00,SE,124,2.0,4.0,25,0.00,,,-99.99,,2013-05-26 21:22:00,
2013-05-26 15:33:00,71.0,33.0,-100.00,SE,124,2.0,4.0,25,0.00,,,-99.99,,2013-05-26 21:33:00,
2013-05-26 15:43:00,71.0,34.0,-100.00,North,352,4.0,9.0,25,0.00,,,-99.99,,2013-05-26 21:43:00,
2013-05-26 15:53:00,71.0,34.0,-100.00,North,352,4.0,9.0,25,0.00,,,-99.99,,2013-05-26 21:53:00,
2013-05-26 16:02:00,71.0,34.0,-100.00,North,352,4.0,9.0,25,0.00,,,-99.99,,2013-05-26 22:02:00,
2013-05-26 16:12:00,72.0,34.0,-100.00,NNE,17,9.0,11.0,25,0.00,,,-99.99,,2013-05-26 22:12:00,
2013-05-26 16:23:00,72.0,33.0,-100.00,NE,38,3.0,5.0,24,0.00,,,-99.99,,2013-05-26 22:23:00,
2013-05-26 16:33:00,72.0,33.0,-100.00,NE,38,3.0,5.0,24,0.00,,,-99.99,,2013-05-26 22:33:00,
2013-05-26 16:42:00,72.0,35.0,-100.00,North,353,4.0,6.0,26,0.00,,,-99.99,,2013-05-26 22:42:00,
2013-05-26 16:53:00,71.0,35.0,-100.00,North,3,5.0,7.0,26,0.00,,,-99.99,,2013-05-26 22:53:00,
2013-05-26 17:02:00,71.0,35.0,-100.00,North,3,5.0,7.0,26,0.00,,,-99.99,,2013-05-26 23:02:00,
2013-05-26 17:11:00,71.0,35.0,-100.00,North,3,5.0,7.0,26,0.00,,,-99.99,,2013-05-26 23:11:00,
2013-05-26 17:22:00,72.0,36.0,-100.00,NW,316,4.0,6.0,27,0.00,,,-99.99,,2013-05-26 23:22:00,
2013-05-26 17:32:00,72.0,36.0,-100.00,NW,316,4.0,6.0,27,0.00,,,-99.99,,2013-05-26 23:32:00,
2013-05-26 17:43:00,72.0,34.0,-100.00,NNW,335,5.0,7.0,25,0.00,,,-99.99,,2013-05-26 23:43:00,
2013-05-26 17:52:00,73.0,34.0,-100.00,East,95,3.0,4.0,24,0.00,,,-99.99,,2013-05-26 23:52:00,
2013-05-26 18:02:00,73.0,34.0,-100.00,East,95,3.0,4.0,24,0.00,,,-99.99,,2013-05-27 00:02:00,
2013-05-26 18:11:00,72.0,34.0,-100.00,ESE,113,2.0,4.0,25,0.00,,,-99.99,,2013-05-27 00:11:00,
2013-05-26 18:21:00,74.0,36.0,-100.00,WNW,301,4.0,7.0,25,0.00,,,-99.99,,2013-05-27 00:21:00,
2013-05-26 18:31:00,74.0,36.0,-100.00,WNW,301,4.0,7.0,25,0.00,,,-99.99,,2013-05-27 00:31:00,
2013-05-26 18:41:00,74.0,36.0,-100.00,WNW,301,4.0,7.0,25,0.00,,,-99.99,,2013-05-27 00:41:00,
2013-05-26 18:52:00,73.0,35.0,-100.00,NW,325,6.0,11.0,25,0.00,,,-99.99,,2013-05-27 00:52:00,
2013-05-26 19:01:00,73.0,35.0,-100.00,NW,325,6.0,11.0,25,0.00,,,-99.99,,2013-05-27 01:01:00,
2013-05-26 19:11:00,71.0,34.0,-100.00,NNW,330,4.0,6.0,25,0.00,,,-99.99,,2013-05-27 01:11:00,
2013-05-26 19:22:00,72.0,34.0,-100.00,NW,323,3.0,6.0,24,0.00,,,-99.99,,2013-05-27 01:22:00,
2013-05-26 19:31:00,72.0,34.0,-100.00,NW,323,3.0,6.0,24,0.00,,,-99.99,,2013-05-27 01:31:00,
2013-05-26 19:42:00,69.0,35.0,-100.00,NW,312,6.0,11.0,28,0.00,,,-99.99,,2013-05-27 01:42:00,
2013-05-26 19:52:00,69.0,34.0,-100.00,NNW,336,5.0,8.0,28,0.00,,,-99.99,,2013-05-27 01:52:00,
2013-05-26 20:01:00,69.0,34.0,-100.00,NNW,336,5.0,8.0,28,0.00,,,-99.99,,2013-05-27 02:01:00,
2013-05-26 20:11:00,69.0,34.0,-100.00,NNW,336,5.0,8.0,28,0.00,,,-99.99,,2013-05-27 02:11:00,
2013-05-26 20:21:00,67.0,35.0,-100.00,NNW,329,2.0,3.0,30,0.00,,,-99.99,,2013-05-27 02:21:00,
2013-05-26 20:31:00,67.0,35.0,-100.00,NNW,329,2.0,3.0,30,0.00,,,-99.99,,2013-05-27 02:31:00,
2013-05-26 20:42:00,67.0,35.0,-100.00,West,280,1.0,3.0,30,0.00,,,-99.99,,2013-05-27 02:42:00,
2013-05-26 20:52:00,65.0,38.0,-100.00,WNW,288,6.0,10.0,36,0.00,,,-99.99,,2013-05-27 02:52:00,
2013-05-26 21:02:00,65.0,38.0,-100.00,WNW,288,6.0,10.0,36,0.00,,,-99.99,,2013-05-27 03:02:00,
2013-05-26 21:11:00,64.0,39.0,-100.00,NNW,332,6.0,11.0,40,0.00,,,-99.99,,2013-05-27 03:11:00,
2013-05-26 21:21:00,61.0,42.0,-100.00,West,267,8.0,13.0,49,0.00,,,-99.99,,2013-05-27 03:21:00,
2013-05-26 21:33:00,61.0,42.0,-100.00,West,267,8.0,13.0,49,0.00,,,-99.99,,2013-05-27 03:33:00,
2013-05-26 21:42:00,61.0,42.0,-100.00,West,267,8.0,13.0,49,0.00,,,-99.99,,2013-05-27 03:42:00,
2013-05-26 21:53:00,57.0,43.0,-100.00,SSE,155,3.0,4.0,58,0.00,,,-99.99,,2013-05-27 03:53:00,
2013-05-26 22:02:00,57.0,43.0,-100.00,SSE,155,3.0,4.0,58,0.00,,,-99.99,,2013-05-27 04:02:00,
2013-05-26 22:12:00,56.0,42.0,-100.00,SE,144,4.0,5.0,61,0.00,,,-99.99,,2013-05-27 04:12:00,
2013-05-26 22:22:00,56.0,42.0,-100.00,SE,144,4.0,5.0,61,0.00,,,-99.99,,2013-05-27 04:22:00,
2013-05-26 22:33:00,56.0,42.0,-100.00,SE,144,4.0,5.0,61,0.00,,,-99.99,,2013-05-27 04:33:00,
2013-05-26 22:42:00,57.0,42.0,-100.00,SSE,147,2.0,4.0,58,0.00,,,-99.99,,2013-05-27 04:42:00,
2013-05-26 22:52:00,55.0,42.0,-100.00,SE,136,3.0,4.0,60,0.00,,,-99.99,,2013-05-27 04:52:00,
2013-05-26 23:02:00,55.0,42.0,-100.00,SE,136,3.0,4.0,60,0.00,,,-99.99,,2013-05-27 05:02:00,
2013-05-26 23:12:00,56.0,42.0,-100.00,SW,230,2.0,3.0,60,0.00,,,-99.99,,2013-05-27 05:12:00,
2013-05-26 23:22:00,58.0,41.0,-100.00,WSW,246,3.0,6.0,53,0.00,,,-99.99,,2013-05-27 05:22:00,
2013-05-26 23:32:00,58.0,41.0,-100.00,WSW,246,3.0,6.0,53,0.00,,,-99.99,,2013-05-27 05:32:00,
2013-05-26 23:41:00,58.0,41.0,-100.00,WSW,246,3.0,6.0,53,0.00,,,-99.99,,2013-05-27 05:41:00,
2013-05-26 23:52:00,59.0,40.0,-100.00,West,272,8.0,13.0,50,0.00,,,-99.99,,2013-05-27 05:52:00,